createdAt,value
2022-08-17T00:01:51.795Z,19.87
2022-08-17T00:04:23.710Z,19.90
2022-08-17T00:06:53.575Z,19.91
2022-08-17T00:09:22.107Z,19.90
2022-08-17T00:12:42.248Z,19.88
2022-08-17T00:14:40.189Z,19.81
2022-08-17T00:17:08.734Z,19.81
2022-08-17T00:19:38.690Z,19.83
2022-08-17T00:22:34.963Z,19.78
2022-08-17T00:24:56.399Z,19.77
2022-08-17T00:27:25.992Z,19.77
2022-08-17T00:29:54.521Z,19.76
2022-08-17T00:33:22.799Z,19.75
2022-08-17T00:35:17.889Z,19.68
2022-08-17T00:37:46.404Z,19.67
2022-08-17T00:40:17.015Z,19.67
2022-08-17T00:42:48.009Z,19.65
2022-08-17T00:45:20.526Z,19.65
2022-08-17T00:47:49.724Z,19.63
2022-08-17T00:50:20.920Z,19.62
2022-08-17T00:52:55.819Z,19.62
2022-08-17T00:55:25.230Z,19.59
2022-08-17T00:58:00.087Z,19.58
2022-08-17T01:00:30.829Z,19.55
2022-08-17T01:03:03.329Z,19.51
2022-08-17T01:05:38.539Z,19.50
2022-08-17T01:08:14.035Z,19.53
2022-08-17T01:10:57.445Z,19.50
2022-08-17T01:13:35.502Z,19.54
2022-08-17T01:16:13.068Z,19.50
2022-08-17T01:18:42.469Z,19.53
2022-08-17T01:21:20.499Z,19.50
2022-08-17T01:23:50.795Z,19.48
2022-08-17T01:26:20.739Z,19.48
2022-08-17T01:28:54.397Z,19.45
2022-08-17T01:31:29.264Z,19.43
2022-08-17T01:33:59.705Z,19.43
2022-08-17T01:36:30.779Z,19.45
2022-08-17T01:39:01.001Z,19.44
2022-08-17T01:41:30.729Z,19.39
2022-08-17T01:44:02.954Z,19.37
2022-08-17T01:46:34.908Z,19.39
2022-08-17T01:49:07.020Z,19.33
2022-08-17T01:51:35.759Z,19.33
2022-08-17T01:54:09.953Z,19.31
2022-08-17T01:56:41.499Z,19.28
2022-08-17T01:59:10.069Z,19.27
2022-08-17T02:01:39.125Z,19.29
2022-08-17T02:04:09.532Z,19.27
2022-08-17T02:06:52.558Z,19.24
2022-08-17T02:09:26.061Z,19.22
2022-08-17T02:11:58.661Z,19.25
2022-08-17T02:14:28.077Z,19.19
2022-08-17T02:16:56.769Z,19.19
2022-08-17T02:19:25.251Z,19.15
2022-08-17T02:21:55.720Z,19.14
2022-08-17T02:25:00.252Z,19.15
2022-08-17T02:27:16.892Z,19.12
2022-08-17T02:29:45.415Z,19.13
2022-08-17T02:32:27.185Z,19.13
2022-08-17T02:34:57.484Z,19.14
2022-08-17T02:37:26.269Z,19.11
2022-08-17T02:39:58.377Z,19.08
2022-08-17T02:42:31.683Z,19.07
2022-08-17T02:45:00.723Z,19.08
2022-08-17T02:47:29.988Z,19.09
2022-08-17T02:49:58.661Z,19.07
2022-08-17T02:52:41.961Z,19.03
2022-08-17T02:55:16.391Z,19.04
2022-08-17T02:57:45.528Z,19.03
2022-08-17T03:00:16.808Z,19.01
2022-08-17T03:02:47.158Z,18.99
2022-08-17T03:05:19.109Z,19.01
2022-08-17T03:07:48.229Z,18.99
2022-08-17T03:10:18.718Z,18.96
2022-08-17T03:12:48.050Z,18.97
2022-08-17T03:15:20.239Z,18.93
2022-08-17T03:17:49.509Z,18.95
2022-08-17T03:20:20.442Z,18.92
2022-08-17T03:22:53.357Z,18.90
2022-08-17T03:25:26.917Z,18.92
2022-08-17T03:27:56.972Z,18.89
2022-08-17T03:30:26.759Z,18.89
2022-08-17T03:32:57.480Z,18.89
2022-08-17T03:35:29.880Z,18.85
2022-08-17T03:38:00.375Z,18.84
2022-08-17T03:40:34.478Z,18.86
2022-08-17T03:43:21.091Z,18.84
2022-08-17T03:46:24.910Z,18.82
2022-08-17T03:49:13.031Z,18.78
2022-08-17T03:51:58.539Z,18.79
2022-08-17T03:54:44.756Z,18.82
2022-08-17T03:57:14.387Z,18.74
2022-08-17T03:59:42.959Z,18.73
2022-08-17T04:02:17.669Z,18.74
2022-08-17T04:04:46.289Z,18.72
2022-08-17T04:07:14.813Z,18.72
2022-08-17T04:09:44.028Z,18.73
2022-08-17T04:12:16.893Z,18.70
2022-08-17T04:14:53.187Z,18.68
2022-08-17T04:17:24.901Z,18.69
2022-08-17T04:19:53.971Z,18.68
2022-08-17T04:22:30.869Z,18.66
2022-08-17T04:25:00.277Z,18.69
2022-08-17T04:27:30.529Z,18.64
2022-08-17T04:29:59.318Z,18.69
2022-08-17T04:33:00.440Z,18.61
2022-08-17T04:35:20.889Z,18.64
2022-08-17T04:37:49.630Z,18.67
2022-08-17T04:40:36.680Z,18.63
2022-08-17T04:43:09.140Z,18.64
2022-08-17T04:45:55.067Z,18.62
2022-08-17T04:48:35.368Z,18.63
2022-08-17T04:51:07.899Z,18.56
2022-08-17T04:53:36.551Z,18.55
2022-08-17T04:56:05.773Z,18.55
2022-08-17T04:58:35.849Z,18.55
2022-08-17T05:01:06.069Z,18.55
2022-08-17T05:03:35.629Z,18.53
2022-08-17T05:06:04.749Z,18.51
2022-08-17T05:08:33.349Z,18.55
2022-08-17T05:11:02.234Z,18.53
2022-08-17T05:13:31.092Z,18.52
2022-08-17T05:16:03.629Z,18.48
2022-08-17T05:18:32.699Z,18.48
2022-08-17T05:21:01.821Z,18.47
2022-08-17T05:23:42.070Z,18.50
2022-08-17T05:26:26.297Z,18.49
2022-08-17T05:29:02.535Z,18.48
2022-08-17T05:31:33.152Z,18.49
2022-08-17T05:34:01.784Z,18.48
2022-08-17T05:36:43.542Z,18.48
2022-08-17T05:39:15.713Z,18.47
2022-08-17T05:41:45.555Z,18.47
2022-08-17T05:44:15.706Z,18.48
2022-08-17T05:46:49.491Z,18.47
2022-08-17T05:49:20.911Z,18.49
2022-08-17T05:52:07.789Z,18.50
2022-08-17T05:54:47.939Z,18.47
2022-08-17T05:57:39.608Z,18.48
2022-08-17T06:00:20.976Z,18.49
2022-08-17T06:03:13.389Z,18.48
2022-08-17T06:05:56.336Z,18.47
2022-08-17T06:08:35.770Z,18.46
2022-08-17T06:11:15.741Z,18.46
2022-08-17T06:14:05.382Z,18.48
2022-08-17T06:16:40.211Z,18.49
2022-08-17T06:19:16.589Z,18.48
2022-08-17T06:21:50.200Z,18.50
2022-08-17T06:24:29.641Z,18.49
2022-08-17T06:27:03.100Z,18.50
2022-08-17T06:29:40.251Z,18.53
2022-08-17T06:32:12.953Z,18.56
2022-08-17T06:34:44.700Z,18.56
2022-08-17T06:37:29.218Z,18.63
2022-08-17T06:40:14.078Z,18.66
2022-08-17T06:43:05.025Z,18.70
2022-08-17T06:45:39.360Z,18.75
2022-08-17T06:48:15.530Z,18.80
2022-08-17T06:50:49.723Z,18.76
2022-08-17T06:53:25.551Z,18.78
2022-08-17T06:56:01.291Z,18.77
2022-08-17T06:58:31.772Z,18.77
2022-08-17T07:01:07.450Z,18.79
2022-08-17T07:03:41.150Z,18.78
2022-08-17T07:06:16.106Z,18.77
2022-08-17T07:08:55.443Z,18.78
2022-08-17T07:11:29.197Z,18.80
2022-08-17T07:14:08.901Z,18.84
2022-08-17T07:16:44.229Z,18.84
2022-08-17T07:19:14.651Z,18.87
2022-08-17T07:21:51.910Z,18.86
2022-08-17T07:24:38.180Z,18.83
2022-08-17T07:27:09.555Z,18.89
2022-08-17T07:29:42.371Z,18.83
2022-08-17T07:32:12.810Z,18.73
2022-08-17T07:35:11.534Z,18.69
2022-08-17T07:37:43.840Z,18.70
2022-08-17T07:40:31.644Z,18.74
2022-08-17T07:43:22.011Z,18.69
2022-08-17T07:46:19.300Z,18.72
2022-08-17T07:48:51.121Z,18.61
2022-08-17T07:51:25.740Z,18.59
2022-08-17T07:54:13.127Z,18.27
2022-08-17T07:56:46.407Z,18.48
2022-08-17T07:59:23.366Z,18.44
2022-08-17T08:02:06.313Z,18.52
2022-08-17T08:07:32.105Z,18.46
2022-08-17T08:10:10.440Z,18.62
2022-08-17T08:12:41.730Z,18.77
2022-08-17T08:15:19.124Z,18.53
2022-08-17T08:17:55.230Z,18.52
2022-08-17T08:20:52.145Z,18.68
2022-08-17T08:23:36.372Z,18.68
2022-08-17T08:26:21.783Z,18.79
2022-08-17T08:29:01.872Z,18.86
2022-08-17T08:31:42.530Z,18.79
2022-08-17T08:34:49.700Z,18.88
2022-08-17T08:37:20.775Z,18.89
2022-08-17T08:40:16.882Z,18.95
2022-08-17T08:42:56.684Z,18.80
2022-08-17T08:45:30.780Z,18.74
2022-08-17T08:48:56.955Z,18.91
2022-08-17T08:51:09.045Z,18.93
2022-08-17T08:53:50.033Z,19.04
2022-08-17T08:56:38.925Z,18.96
2022-08-17T08:59:21.111Z,18.95
2022-08-17T09:02:06.770Z,18.95
2022-08-17T09:05:13.411Z,19.05
2022-08-17T09:07:54.709Z,19.10
2022-08-17T09:10:31.381Z,19.10
2022-08-17T09:13:11.064Z,19.11
2022-08-17T09:15:46.652Z,19.15
2022-08-17T09:19:00.480Z,19.19
2022-08-17T09:21:21.315Z,18.96
2022-08-17T09:24:08.022Z,19.09
2022-08-17T09:26:53.051Z,19.09
2022-08-17T09:29:28.400Z,19.08
2022-08-17T09:32:03.970Z,19.12
2022-08-17T09:34:37.530Z,19.14
2022-08-17T09:37:25.465Z,19.17
2022-08-17T09:40:13.279Z,19.20
2022-08-17T09:42:54.691Z,19.16
2022-08-17T09:45:40.900Z,19.21
2022-08-17T09:48:28.558Z,19.22
2022-08-17T09:51:13.261Z,19.14
2022-08-17T09:53:51.090Z,19.25
2022-08-17T09:56:48.278Z,19.33
2022-08-17T09:59:44.718Z,19.31
2022-08-17T10:02:40.670Z,19.22
2022-08-17T10:05:21.543Z,19.42
2022-08-17T10:08:00.614Z,19.47
2022-08-17T10:10:56.378Z,19.47
2022-08-17T10:13:37.015Z,19.51
2022-08-17T10:16:15.578Z,19.52
2022-08-17T10:18:56.131Z,19.55
2022-08-17T10:21:47.430Z,19.53
2022-08-17T10:24:38.790Z,19.55
2022-08-17T10:27:14.481Z,19.55
2022-08-17T10:29:49.621Z,19.58
2022-08-17T10:32:33.077Z,19.54
2022-08-17T10:35:31.655Z,19.32
2022-08-17T10:38:41.247Z,19.57
2022-08-17T10:41:29.190Z,19.40
2022-08-17T10:44:40.358Z,19.71
2022-08-17T10:47:23.420Z,19.77
2022-08-17T10:50:08.929Z,19.57
2022-08-17T10:52:53.424Z,19.61
2022-08-17T10:55:26.641Z,19.60
2022-08-17T10:58:25.219Z,19.53
2022-08-17T11:01:01.258Z,19.57
2022-08-17T11:03:36.174Z,19.65
2022-08-17T11:06:19.680Z,19.66
2022-08-17T11:09:24.066Z,19.63
2022-08-17T11:12:15.910Z,19.79
2022-08-17T11:15:03.089Z,19.88
2022-08-17T11:18:23.130Z,19.92
2022-08-17T11:21:27.480Z,19.99
2022-08-17T11:24:20.838Z,19.93
2022-08-17T11:27:12.518Z,19.88
2022-08-17T11:29:58.129Z,20.10
2022-08-17T11:32:34.590Z,20.13
2022-08-17T11:35:29.869Z,20.20
2022-08-17T11:38:16.701Z,20.19
2022-08-17T11:41:10.825Z,20.16
2022-08-17T11:44:27.783Z,20.31
2022-08-17T11:47:37.168Z,20.14
2022-08-17T11:50:48.698Z,20.28
2022-08-17T11:54:21.430Z,20.33
2022-08-17T11:56:51.025Z,20.33
2022-08-17T11:59:59.890Z,20.40
2022-08-17T12:02:47.912Z,20.25
2022-08-17T12:05:35.398Z,20.21
2022-08-17T12:08:14.981Z,20.30
2022-08-17T12:10:59.869Z,20.30
2022-08-17T12:13:38.709Z,20.33
2022-08-17T12:16:10.690Z,20.40
2022-08-17T12:18:42.439Z,20.27
2022-08-17T12:21:40.438Z,20.14
2022-08-17T12:24:23.164Z,20.30
2022-08-17T12:26:59.543Z,20.51
2022-08-17T12:29:35.550Z,20.58
2022-08-17T12:32:21.103Z,20.61
2022-08-17T12:34:51.895Z,20.63
2022-08-17T12:37:22.743Z,20.64
2022-08-17T12:39:55.378Z,20.65
2022-08-17T12:42:27.839Z,20.64
2022-08-17T12:44:57.049Z,20.70
2022-08-17T12:47:29.353Z,20.68
2022-08-17T12:50:28.971Z,20.67
2022-08-17T12:53:01.901Z,20.76
2022-08-17T12:55:37.154Z,20.74
2022-08-17T12:58:12.254Z,20.76
2022-08-17T13:00:52.464Z,20.83
2022-08-17T13:03:30.738Z,20.86
2022-08-17T13:06:26.963Z,20.89
2022-08-17T13:09:01.198Z,20.92
2022-08-17T13:11:32.313Z,20.95
2022-08-17T13:14:11.717Z,21.01
2022-08-17T13:16:40.274Z,21.01
2022-08-17T13:19:17.759Z,21.03
2022-08-17T13:22:50.684Z,21.10
2022-08-17T13:25:22.429Z,21.13
2022-08-17T13:28:02.817Z,21.17
2022-08-17T13:30:34.105Z,21.24
2022-08-17T13:33:57.583Z,21.29
2022-08-17T13:36:31.044Z,21.34
2022-08-17T13:39:09.876Z,21.35
2022-08-17T13:41:39.743Z,21.35
2022-08-17T13:44:32.800Z,21.47
2022-08-17T13:47:02.554Z,21.56
2022-08-17T13:49:49.090Z,21.61
2022-08-17T13:52:39.135Z,21.60
2022-08-17T13:55:10.635Z,21.45
2022-08-17T13:57:39.193Z,21.36
2022-08-17T14:00:18.423Z,21.44
2022-08-17T14:02:46.924Z,21.24
2022-08-17T14:05:15.554Z,21.15
2022-08-17T14:07:50.302Z,21.23
2022-08-17T14:10:20.434Z,21.30
2022-08-17T14:12:50.449Z,21.20
2022-08-17T14:15:22.134Z,21.17
2022-08-17T14:17:52.277Z,21.01
2022-08-17T14:20:22.935Z,21.04
2022-08-17T14:22:55.994Z,21.15
2022-08-17T14:25:26.999Z,21.14
2022-08-17T14:27:56.639Z,21.22
2022-08-17T14:30:29.728Z,21.35
2022-08-17T14:32:59.647Z,21.43
2022-08-17T14:35:29.736Z,21.36
2022-08-17T14:37:59.966Z,21.42
2022-08-17T14:40:28.465Z,21.30
2022-08-17T14:42:58.659Z,21.28
2022-08-17T14:45:32.723Z,21.24
2022-08-17T14:48:04.364Z,21.16
2022-08-17T14:50:35.527Z,21.16
2022-08-17T14:53:06.917Z,21.18
2022-08-17T14:55:37.115Z,21.05
2022-08-17T14:58:05.617Z,21.13
2022-08-17T15:00:34.266Z,21.14
2022-08-17T15:03:03.443Z,21.35
2022-08-17T15:05:34.027Z,21.42
2022-08-17T15:08:05.780Z,21.41
2022-08-17T15:10:35.050Z,21.41
2022-08-17T15:13:03.859Z,21.33
2022-08-17T15:16:09.955Z,21.37
2022-08-17T15:19:08.175Z,21.45
2022-08-17T15:21:39.076Z,21.50
2022-08-17T15:24:09.974Z,21.51
2022-08-17T15:26:39.387Z,21.50
2022-08-17T15:29:10.401Z,21.57
2022-08-17T15:31:39.222Z,21.57
2022-08-17T15:34:08.185Z,21.64
2022-08-17T15:36:37.704Z,21.60
2022-08-17T15:39:13.984Z,21.58
2022-08-17T15:41:58.145Z,21.72
2022-08-17T15:44:32.669Z,21.74
2022-08-17T15:47:05.197Z,21.49
2022-08-17T15:49:34.046Z,21.51
2022-08-17T15:52:02.766Z,21.71
2022-08-17T15:54:34.880Z,21.81
2022-08-17T15:57:05.105Z,21.70
2022-08-17T15:59:33.725Z,21.71
2022-08-17T16:03:13.587Z,21.74
2022-08-17T16:04:52.290Z,21.49
2022-08-17T16:07:26.584Z,21.38
2022-08-17T16:09:57.175Z,21.47
2022-08-17T16:12:26.825Z,21.42
2022-08-17T16:14:58.545Z,21.60
2022-08-17T16:17:39.790Z,21.62
2022-08-17T16:20:10.474Z,21.60
2022-08-17T16:22:50.645Z,21.58
2022-08-17T16:25:40.298Z,21.54
2022-08-17T16:28:17.775Z,21.47
2022-08-17T16:30:46.589Z,21.44
2022-08-17T16:33:16.903Z,21.41
2022-08-17T16:35:47.305Z,21.31
2022-08-17T16:38:16.065Z,21.32
2022-08-17T16:40:46.075Z,21.33
2022-08-17T16:43:15.585Z,21.33
2022-08-17T16:45:47.477Z,21.33
2022-08-17T16:48:18.825Z,21.32
2022-08-17T16:51:03.665Z,21.21
2022-08-17T17:17:16.829Z,20.97
2022-08-17T17:19:52.405Z,20.98
2022-08-17T17:22:25.464Z,21.03
2022-08-17T17:25:11.094Z,20.97
2022-08-17T17:27:47.546Z,20.97
2022-08-17T17:30:21.568Z,20.94
2022-08-17T17:32:55.836Z,20.88
2022-08-17T17:35:31.896Z,20.86
2022-08-17T17:38:05.139Z,20.88
2022-08-17T17:40:38.794Z,20.90
2022-08-17T17:43:36.853Z,20.89
2022-08-17T17:46:26.784Z,20.88
2022-08-17T17:48:52.165Z,20.87
2022-08-17T17:52:06.401Z,20.85
2022-08-17T17:54:32.825Z,20.82
2022-08-17T17:57:08.596Z,20.81
2022-08-17T17:59:53.515Z,20.81
2022-08-17T18:02:52.884Z,20.82
2022-08-17T18:05:43.030Z,20.80
2022-08-17T18:09:03.308Z,20.73
2022-08-17T18:11:59.994Z,20.69
2022-08-17T18:14:47.995Z,20.72
2022-08-17T18:17:18.376Z,20.74
2022-08-17T18:19:48.469Z,20.72
2022-08-17T18:22:21.180Z,20.74
2022-08-17T18:24:56.075Z,20.73
2022-08-17T18:27:32.454Z,20.66
2022-08-17T18:30:08.611Z,20.55
2022-08-17T18:32:40.274Z,20.57
2022-08-17T18:35:30.637Z,20.63
2022-08-17T18:38:21.569Z,20.62
2022-08-17T18:41:01.265Z,20.63
2022-08-17T18:43:44.009Z,20.38
2022-08-17T18:46:29.763Z,20.37
2022-08-17T18:49:02.139Z,20.19
2022-08-17T18:51:40.440Z,20.09
2022-08-17T18:54:22.505Z,20.01
2022-08-17T18:56:55.228Z,20.03
2022-08-17T18:59:30.705Z,20.09
2022-08-17T19:02:11.633Z,20.10
2022-08-17T19:04:59.282Z,19.96
2022-08-17T19:07:31.736Z,19.87
2022-08-17T19:10:11.665Z,19.88
2022-08-17T19:12:45.425Z,19.84
2022-08-17T19:15:16.871Z,19.76
2022-08-17T19:17:49.635Z,19.81
2022-08-17T19:20:23.415Z,20.00
2022-08-17T19:23:04.984Z,20.10
2022-08-17T19:25:40.444Z,20.04
2022-08-17T19:28:15.371Z,19.79
2022-08-17T19:30:52.005Z,19.79
2022-08-17T19:33:20.915Z,20.00
2022-08-17T19:35:59.291Z,20.12
2022-08-17T19:38:38.101Z,20.17
2022-08-17T19:41:14.656Z,20.19
2022-08-17T19:44:06.205Z,20.21
2022-08-17T19:46:50.072Z,20.20
2022-08-17T19:49:41.415Z,20.21
2022-08-17T19:52:24.337Z,20.23
2022-08-17T19:55:09.404Z,20.24
2022-08-17T19:57:50.713Z,20.23
2022-08-17T20:00:20.907Z,20.23
2022-08-17T20:02:56.429Z,20.22
2022-08-17T20:05:30.545Z,20.23
2022-08-17T20:08:04.554Z,20.23
2022-08-17T20:10:54.743Z,20.21
2022-08-17T20:13:33.933Z,20.20
2022-08-17T20:16:03.865Z,20.19
2022-08-17T20:18:46.016Z,20.18
2022-08-17T20:21:29.239Z,20.16
2022-08-17T20:24:03.289Z,20.15
2022-08-17T20:26:55.302Z,20.16
2022-08-17T20:29:40.555Z,20.12
2022-08-17T20:32:28.245Z,20.11
2022-08-17T20:35:18.092Z,20.09
2022-08-17T20:37:54.493Z,20.07
2022-08-17T20:40:30.524Z,20.06
2022-08-17T20:43:00.124Z,19.96
2022-08-17T20:46:03.379Z,19.94
2022-08-17T20:48:38.916Z,19.94
2022-08-17T20:51:27.496Z,19.96
2022-08-17T20:54:39.214Z,19.96
2022-08-17T20:57:14.103Z,19.93
2022-08-17T21:00:14.285Z,19.95
2022-08-17T21:02:45.925Z,19.95
2022-08-17T21:05:38.821Z,19.94
2022-08-17T21:08:16.385Z,19.93
2022-08-17T21:10:47.367Z,19.90
2022-08-17T21:13:51.350Z,19.90
2022-08-17T21:16:43.545Z,19.87
2022-08-17T21:19:30.932Z,19.88
2022-08-17T21:22:12.269Z,19.88
2022-08-17T21:24:52.985Z,19.87
2022-08-17T21:27:30.455Z,19.86
2022-08-17T21:30:22.725Z,19.86
2022-08-17T21:33:20.444Z,19.85
2022-08-17T21:35:58.536Z,19.86
2022-08-17T21:38:35.955Z,19.84
2022-08-17T21:41:04.641Z,19.84
2022-08-17T21:43:36.785Z,19.82
2022-08-17T21:46:09.791Z,19.77
2022-08-17T21:48:45.361Z,19.79
2022-08-17T21:51:21.174Z,19.84
2022-08-17T21:53:52.742Z,19.86
2022-08-17T21:56:29.007Z,19.88
2022-08-17T21:59:01.162Z,19.90
2022-08-17T22:01:34.740Z,19.90
2022-08-17T22:04:06.876Z,19.91
2022-08-17T22:06:41.121Z,19.93
2022-08-17T22:09:19.485Z,19.94
2022-08-17T22:12:07.746Z,19.93
2022-08-17T22:14:53.296Z,19.94
2022-08-17T22:17:26.127Z,19.95
2022-08-17T22:19:57.780Z,19.96
2022-08-17T22:22:35.158Z,19.96
2022-08-17T22:25:07.383Z,19.97
2022-08-17T22:27:51.726Z,19.97
2022-08-17T22:30:35.398Z,19.96
2022-08-17T22:33:31.698Z,19.96
2022-08-17T22:36:14.862Z,19.95
2022-08-17T22:38:45.287Z,19.96
2022-08-17T22:41:35.793Z,19.93
2022-08-17T22:44:21.256Z,19.87
2022-08-17T22:46:55.523Z,19.85
2022-08-17T22:49:27.686Z,19.82
2022-08-17T22:52:29.094Z,19.83
2022-08-17T22:55:33.505Z,19.83
2022-08-17T22:58:20.287Z,19.82
2022-08-17T23:00:50.816Z,19.82
2022-08-17T23:03:22.384Z,19.80
2022-08-17T23:06:05.628Z,19.85
2022-08-17T23:08:36.276Z,19.86
2022-08-17T23:11:07.539Z,19.86
2022-08-17T23:13:37.823Z,19.79
2022-08-17T23:16:06.656Z,19.74
2022-08-17T23:18:35.756Z,19.78
2022-08-17T23:21:05.267Z,19.79
2022-08-17T23:23:33.728Z,19.80
2022-08-17T23:26:03.157Z,19.77
2022-08-17T23:28:37.667Z,19.79
2022-08-17T23:31:07.756Z,19.79
2022-08-17T23:33:37.487Z,19.78
2022-08-17T23:36:15.263Z,19.77
2022-08-17T23:38:47.097Z,19.76
2022-08-17T23:41:19.887Z,19.75
2022-08-17T23:43:52.038Z,19.76
2022-08-17T23:46:25.303Z,19.75
2022-08-17T23:48:54.838Z,19.76
2022-08-17T23:51:27.516Z,19.73
2022-08-17T23:54:02.112Z,19.75
2022-08-17T23:56:33.828Z,19.72
2022-08-17T23:59:03.986Z,19.72
